Time;durP1;ratioP1;P1;durP2;ratioP2;P2;SDS_P1;SDS_P2;PMS_P1;PMS_P2;Temp;Humidity;BMP_temperature;BMP_pressure;BME280_temperature;BME280_humidity;BME280_pressure;Samples;Min_cycle;Max_cycle;Signal;HPM_P1;HPM_P2
2022/03/17 00:01:07;;;;;;;16.73;5.53;;;16.70;51.40;;;;;;6124352;28;20453;-70
2022/03/17 00:04:09;;;;;;;16.92;5.25;;;16.70;51.50;;;;;;6103851;28;20131;-68
2022/03/17 00:07:10;;;;;;;19.85;5.10;;;16.70;51.50;;;;;;6113829;28;20422;-70
2022/03/17 00:10:14;;;;;;;22.63;6.13;;;16.70;51.60;;;;;;6125384;28;20454;-69
2022/03/17 00:13:15;;;;;;;16.58;5.78;;;16.70;51.70;;;;;;6109490;28;20449;-69
2022/03/17 00:16:16;;;;;;;12.05;4.95;;;16.70;51.70;;;;;;6108621;28;20043;-70
2022/03/17 00:19:17;;;;;;;16.52;5.20;;;16.70;51.70;;;;;;6124089;28;20118;-70
2022/03/17 00:22:19;;;;;;;31.30;5.70;;;16.70;51.60;;;;;;6126221;28;20445;-70
2022/03/17 00:25:20;;;;;;;15.00;5.22;;;16.60;51.60;;;;;;6125457;28;20047;-70
2022/03/17 00:28:21;;;;;;;20.27;5.90;;;16.60;51.50;;;;;;6125188;28;20477;-70
2022/03/17 00:31:22;;;;;;;17.27;5.22;;;16.60;51.60;;;;;;6108733;28;20469;-70
2022/03/17 00:34:23;;;;;;;13.73;5.40;;;16.60;51.70;;;;;;6120972;28;20134;-70
2022/03/17 00:37:25;;;;;;;12.82;5.75;;;16.60;51.80;;;;;;6125306;28;20330;-69
2022/03/17 00:40:26;;;;;;;11.13;5.43;;;16.60;51.80;;;;;;6104588;28;20031;-71
2022/03/17 00:43:27;;;;;;;10.88;5.70;;;16.60;51.90;;;;;;6125203;28;20055;-69
2022/03/17 00:46:28;;;;;;;13.35;5.45;;;16.60;51.90;;;;;;6123917;28;20094;-70
2022/03/17 00:49:29;;;;;;;18.60;5.97;;;16.60;52.20;;;;;;6124701;28;20110;-70
2022/03/17 00:52:30;;;;;;;18.48;5.68;;;16.60;52.40;;;;;;6124999;28;20049;-69
2022/03/17 00:55:31;;;;;;;14.88;5.90;;;16.60;52.60;;;;;;6124648;28;20416;-70
2022/03/17 00:58:32;;;;;;;14.98;6.07;;;16.50;52.70;;;;;;6116840;28;20039;-70
2022/03/17 01:01:33;;;;;;;13.48;5.72;;;16.50;52.80;;;;;;6124356;28;20047;-69
2022/03/17 01:04:35;;;;;;;15.25;5.72;;;16.40;52.90;;;;;;6125222;28;20035;-69
2022/03/17 01:07:40;;;;;;;17.83;6.22;;;16.40;53.10;;;;;;6125377;28;20365;-70
2022/03/17 01:10:42;;;;;;;20.05;6.93;;;16.40;53.30;;;;;;6107909;28;20036;-68
2022/03/17 01:13:43;;;;;;;16.15;5.30;;;16.40;53.40;;;;;;6124663;28;20039;-69
2022/03/17 01:16:45;;;;;;;15.95;5.95;;;16.30;53.60;;;;;;6108166;28;20067;-70
2022/03/17 01:19:45;;;;;;;16.55;7.13;;;16.30;53.70;;;;;;6124781;28;20047;-70
2022/03/17 01:22:47;;;;;;;23.52;6.60;;;16.20;53.80;;;;;;6108404;28;20043;-71
2022/03/17 01:25:47;;;;;;;18.08;6.47;;;16.20;53.90;;;;;;6122542;28;20040;-69
2022/03/17 01:28:48;;;;;;;16.17;7.03;;;16.20;53.90;;;;;;6117414;28;20086;-70
2022/03/17 01:31:50;;;;;;;19.90;6.50;;;16.20;54.10;;;;;;6124038;28;20523;-69
2022/03/17 01:34:51;;;;;;;17.90;6.88;;;16.20;54.20;;;;;;6124325;28;20055;-70
2022/03/17 01:37:52;;;;;;;15.40;6.60;;;16.20;54.30;;;;;;6124700;28;20090;-69
2022/03/17 01:40:53;;;;;;;25.95;6.80;;;16.10;54.40;;;;;;6123892;28;20420;-69
2022/03/17 01:43:54;;;;;;;16.52;5.88;;;16.10;54.50;;;;;;6124242;28;20048;-69
2022/03/17 01:50:17;;;;;;;15.65;5.88;;;16.10;54.60;;;;;;6119265;28;20115;-69
2022/03/17 01:53:19;;;;;;;14.18;5.82;;;16.00;54.70;;;;;;6119906;28;20042;-70
2022/03/17 01:56:20;;;;;;;12.15;5.43;;;16.00;54.80;;;;;;6119259;28;20055;-70
2022/03/17 01:59:22;;;;;;;11.73;6.13;;;15.90;54.80;;;;;;6125144;28;20174;-70
2022/03/17 02:02:24;;;;;;;20.83;6.20;;;15.90;54.90;;;;;;6118117;28;20051;-70
2022/03/17 02:05:26;;;;;;;22.27;6.82;;;15.90;55.60;;;;;;6123326;28;20051;-70
2022/03/17 02:08:27;;;;;;;15.00;6.18;;;15.80;55.10;;;;;;6123380;28;20460;-70
2022/03/17 02:14:58;;;;;;;20.80;6.95;;;15.70;55.30;;;;;;6118491;28;20043;-69
2022/03/17 02:18:00;;;;;;;19.60;7.13;;;15.70;55.50;;;;;;6112500;28;20080;-70
2022/03/17 02:21:01;;;;;;;17.77;6.68;;;15.70;55.60;;;;;;6126334;28;20043;-70
2022/03/17 02:27:22;;;;;;;11.15;6.18;;;15.70;55.40;;;;;;6127482;28;20480;-68
2022/03/17 02:30:23;;;;;;;18.17;6.85;;;15.80;56.00;;;;;;6128271;28;20043;-70
2022/03/17 02:33:25;;;;;;;15.95;6.57;;;15.80;55.30;;;;;;6128010;28;20055;-70
2022/03/17 02:36:26;;;;;;;25.90;8.80;;;15.80;55.30;;;;;;6128016;28;20039;-69
2022/03/17 02:39:27;;;;;;;19.90;8.82;;;15.80;55.30;;;;;;6129374;28;20449;-69
2022/03/17 02:42:30;;;;;;;24.85;8.90;;;15.80;55.30;;;;;;6127135;28;20115;-69
2022/03/17 02:45:31;;;;;;;21.33;8.13;;;15.80;55.30;;;;;;6105338;28;20036;-69
2022/03/17 02:48:33;;;;;;;25.05;8.43;;;15.80;55.30;;;;;;6111745;28;20048;-69
2022/03/17 02:51:34;;;;;;;22.92;7.97;;;15.80;55.30;;;;;;6111115;28;20539;-70
2022/03/17 02:54:35;;;;;;;21.63;8.25;;;15.80;55.20;;;;;;6123106;28;20047;-69
2022/03/17 02:57:40;;;;;;;20.08;8.20;;;15.80;55.20;;;;;;6125021;28;20040;-70
2022/03/17 03:00:40;;;;;;;22.45;7.38;;;15.80;55.20;;;;;;6127609;28;20032;-71
2022/03/17 03:03:41;;;;;;;19.90;7.13;;;15.80;55.30;;;;;;6125764;28;20484;-70
2022/03/17 03:06:46;;;;;;;23.48;7.93;;;15.80;55.30;;;;;;6126803;28;20039;-70
2022/03/17 03:09:47;;;;;;;21.50;7.35;;;15.80;55.40;;;;;;6126054;28;20547;-70
2022/03/17 03:12:48;;;;;;;20.60;7.07;;;15.80;56.10;;;;;;6120872;28;20385;-70
2022/03/17 03:15:52;;;;;;;15.25;6.85;;;15.80;55.50;;;;;;6127267;28;20150;-70
2022/03/17 03:18:53;;;;;;;22.08;7.30;;;15.80;55.50;;;;;;6111505;28;20043;-70
2022/03/17 03:21:53;;;;;;;18.67;7.18;;;15.70;55.50;;;;;;6126943;28;20032;-70
2022/03/17 03:24:57;;;;;;;18.33;6.90;;;15.80;55.60;;;;;;6104723;28;20469;-70
2022/03/17 03:28:10;;;;;;;21.70;7.30;;;15.70;55.60;;;;;;6124652;28;20380;-70
2022/03/17 03:31:11;;;;;;;21.48;7.85;;;15.70;55.70;;;;;;6109990;28;20357;-70
2022/03/17 03:34:12;;;;;;;18.55;8.02;;;15.70;55.70;;;;;;6125799;28;20040;-70
2022/03/17 03:37:23;;;;;;;20.08;7.78;;;15.70;55.80;;;;;;6125855;28;20036;-70
2022/03/17 03:40:24;;;;;;;13.85;6.93;;;15.60;55.90;;;;;;6124701;28;20118;-69
2022/03/17 03:43:25;;;;;;;16.80;7.47;;;15.60;56.00;;;;;;6126589;28;20422;-69
2022/03/17 03:46:26;;;;;;;17.40;6.55;;;15.60;56.00;;;;;;6110771;28;20050;-69
2022/03/17 03:49:27;;;;;;;14.15;7.55;;;15.60;56.10;;;;;;6126908;28;20490;-69
2022/03/17 03:52:28;;;;;;;18.40;7.95;;;15.60;56.10;;;;;;6127172;28;20040;-69
2022/03/17 03:55:29;;;;;;;16.35;7.00;;;15.60;56.20;;;;;;6126156;28;20056;-69
2022/03/17 03:58:30;;;;;;;19.90;6.60;;;15.60;56.20;;;;;;6125388;28;20119;-69
2022/03/17 04:01:32;;;;;;;22.65;7.07;;;15.60;56.20;;;;;;6125660;28;20048;-69
2022/03/17 04:04:34;;;;;;;19.48;6.50;;;15.60;56.20;;;;;;6126687;28;20055;-69
2022/03/17 04:07:35;;;;;;;20.95;6.78;;;15.50;56.10;;;;;;6124352;28;20031;-69
2022/03/17 04:10:36;;;;;;;12.30;6.70;;;15.60;56.10;;;;;;6125389;28;20305;-68
2022/03/17 04:13:37;;;;;;;18.67;6.68;;;15.60;56.10;;;;;;6120890;28;20123;-69
2022/03/17 04:16:38;;;;;;;17.08;7.75;;;15.60;56.00;;;;;;6122432;28;20058;-69
2022/03/17 04:19:38;;;;;;;23.98;6.85;;;15.70;56.00;;;;;;6110194;28;20102;-68
2022/03/17 04:22:39;;;;;;;22.05;6.97;;;15.70;56.00;;;;;;6125886;28;20040;-70
2022/03/17 04:25:40;;;;;;;17.55;6.55;;;15.70;56.00;;;;;;6109292;28;20173;-70
2022/03/17 04:28:42;;;;;;;15.07;7.00;;;15.70;56.10;;;;;;6126433;28;20438;-70
2022/03/17 04:31:44;;;;;;;19.65;8.55;;;15.60;56.10;;;;;;6125203;28;20042;-70
2022/03/17 04:34:45;;;;;;;18.38;7.45;;;15.50;56.30;;;;;;6126294;28;20418;-68
2022/03/17 04:37:46;;;;;;;16.90;7.00;;;15.50;56.40;;;;;;6124991;28;20066;-69
2022/03/17 04:40:49;;;;;;;15.10;7.80;;;15.40;56.50;;;;;;6124731;28;20028;-69
2022/03/17 04:43:50;;;;;;;21.00;7.45;;;15.40;56.50;;;;;;6123259;28;20050;-70
2022/03/17 04:46:51;;;;;;;13.48;6.07;;;15.40;56.50;;;;;;6125745;28;20483;-69
2022/03/17 04:49:52;;;;;;;12.68;5.63;;;15.40;56.50;;;;;;6126077;28;20040;-69
2022/03/17 04:56:16;;;;;;;11.48;5.57;;;15.30;56.40;;;;;;6115376;28;20058;-69
2022/03/17 04:59:20;;;;;;;14.35;5.55;;;15.30;56.30;;;;;;6101815;28;20036;-69
2022/03/17 05:02:21;;;;;;;14.25;6.53;;;15.30;56.30;;;;;;6122120;28;20040;-69
2022/03/17 05:05:22;;;;;;;16.90;6.35;;;15.30;56.30;;;;;;6124506;28;20482;-69
2022/03/17 05:08:23;;;;;;;13.52;5.90;;;15.30;56.30;;;;;;6124145;28;20040;-69
2022/03/17 05:11:24;;;;;;;17.65;6.65;;;15.30;56.40;;;;;;6107391;28;20071;-68
2022/03/17 05:14:25;;;;;;;13.32;6.70;;;15.30;56.30;;;;;;6107590;28;20147;-69
2022/03/17 05:17:26;;;;;;;16.30;6.68;;;15.30;56.40;;;;;;6119454;28;20051;-69
2022/03/17 05:20:27;;;;;;;16.05;6.82;;;15.30;56.40;;;;;;6119530;28;20529;-69
2022/03/17 05:23:30;;;;;;;20.52;7.25;;;15.30;56.40;;;;;;6119230;28;20035;-70
2022/03/17 05:26:31;;;;;;;23.85;7.63;;;15.30;56.50;;;;;;6117233;28;20122;-70
2022/03/17 05:29:32;;;;;;;13.82;6.95;;;15.30;56.60;;;;;;6121155;28;20044;-69
2022/03/17 05:32:34;;;;;;;19.88;7.20;;;15.30;56.70;;;;;;6102625;28;20035;-69
2022/03/17 05:35:35;;;;;;;19.42;7.38;;;15.20;56.80;;;;;;6119054;28;20051;-69
2022/03/17 05:38:35;;;;;;;24.80;7.78;;;15.20;57.00;;;;;;6122686;28;20032;-69
2022/03/17 05:41:36;;;;;;;29.55;6.88;;;15.20;57.00;;;;;;6122358;28;20051;-69
2022/03/17 05:44:37;;;;;;;19.23;7.40;;;15.20;57.10;;;;;;6123807;28;20426;-69
2022/03/17 05:47:40;;;;;;;17.10;6.90;;;15.20;57.00;;;;;;6119331;28;20130;-68
2022/03/17 05:50:43;;;;;;;17.63;6.72;;;15.20;57.00;;;;;;6096942;28;20542;-71
2022/03/17 05:53:44;;;;;;;19.52;7.28;;;15.20;56.90;;;;;;6121548;28;20036;-70
2022/03/17 05:56:45;;;;;;;23.90;8.15;;;15.20;56.90;;;;;;6126288;28;20091;-68
2022/03/17 05:59:46;;;;;;;20.90;7.45;;;15.20;57.10;;;;;;6103340;28;20047;-68
2022/03/17 06:02:47;;;;;;;27.77;7.03;;;15.10;57.20;;;;;;6107826;28;20483;-68
2022/03/17 06:05:48;;;;;;;17.27;7.43;;;15.10;57.30;;;;;;6126827;28;20090;-68
2022/03/17 06:08:49;;;;;;;20.05;7.07;;;15.10;57.30;;;;;;6117796;28;20039;-69
2022/03/17 06:11:50;;;;;;;15.80;5.95;;;15.10;57.30;;;;;;6123269;28;20042;-68
2022/03/17 06:14:52;;;;;;;22.33;7.20;;;15.00;57.30;;;;;;6119634;28;20144;-69
2022/03/17 06:17:55;;;;;;;13.88;6.82;;;15.00;57.50;;;;;;6121958;28;20036;-68
2022/03/17 06:20:56;;;;;;;33.50;6.78;;;14.90;57.50;;;;;;6119659;28;20190;-70
2022/03/17 06:23:57;;;;;;;11.88;5.47;;;14.80;57.60;;;;;;6120382;28;20054;-68
2022/03/17 06:26:58;;;;;;;23.48;6.20;;;14.80;57.70;;;;;;6121710;28;20040;-68
2022/03/17 06:29:59;;;;;;;13.77;5.97;;;14.80;57.70;;;;;;6105514;28;20126;-68
2022/03/17 06:33:01;;;;;;;10.70;5.40;;;14.80;57.70;;;;;;6119211;28;20087;-69
2022/03/17 06:36:02;;;;;;;14.73;5.65;;;14.80;57.70;;;;;;6123802;28;20036;-69
2022/03/17 06:39:03;;;;;;;18.58;5.88;;;14.90;57.60;;;;;;6125593;28;20102;-70
2022/03/17 06:42:04;;;;;;;29.25;6.05;;;14.90;57.50;;;;;;6124876;28;20058;-70
2022/03/17 06:45:06;;;;;;;15.55;5.82;;;14.90;57.40;;;;;;6123697;28;20126;-69
2022/03/17 06:48:07;;;;;;;18.58;5.00;;;15.00;57.40;;;;;;6122763;28;20489;-70
2022/03/17 06:51:08;;;;;;;15.80;5.60;;;15.00;57.20;;;;;;6124271;28;20040;-69
2022/03/17 06:54:09;;;;;;;16.65;6.40;;;15.10;57.10;;;;;;6117661;28;20044;-69
2022/03/17 06:57:09;;;;;;;29.77;6.85;;;15.20;57.00;;;;;;6124223;28;20425;-68
2022/03/17 07:00:15;;;;;;;14.00;6.57;;;15.30;56.90;;;;;;6121859;28;20048;-68
2022/03/17 07:03:16;;;;;;;14.45;7.57;;;15.30;56.80;;;;;;6119727;28;20044;-68
2022/03/17 07:06:16;;;;;;;27.67;7.30;;;15.40;56.70;;;;;;6105700;28;20086;-69
2022/03/17 07:09:17;;;;;;;13.77;6.35;;;15.50;56.60;;;;;;6124328;28;20126;-69
2022/03/17 07:12:18;;;;;;;19.48;6.93;;;15.50;56.60;;;;;;6124348;28;20039;-68
2022/03/17 07:15:19;;;;;;;25.27;8.18;;;15.60;56.50;;;;;;6124543;28;20050;-69
2022/03/17 07:18:20;;;;;;;16.92;6.40;;;15.60;56.40;;;;;;6123865;28;20106;-69
2022/03/17 07:21:21;;;;;;;17.38;7.13;;;15.60;56.40;;;;;;6123680;28;20040;-69
2022/03/17 07:24:22;;;;;;;16.95;7.50;;;15.60;56.30;;;;;;6122090;28;20049;-68
2022/03/17 07:27:24;;;;;;;19.13;7.60;;;15.70;56.30;;;;;;6120562;28;20039;-68
2022/03/17 07:30:26;;;;;;;22.88;7.82;;;15.80;56.10;;;;;;6118744;28;20082;-69
2022/03/17 07:33:27;;;;;;;28.80;10.23;;;15.80;55.90;;;;;;6107250;28;20458;-68
2022/03/17 07:36:28;;;;;;;18.65;7.63;;;15.80;55.90;;;;;;6127173;28;20067;-69
2022/03/17 07:39:29;;;;;;;21.38;6.05;;;15.90;55.80;;;;;;6108600;28;20472;-69
2022/03/17 07:42:30;;;;;;;15.38;6.05;;;16.00;55.70;;;;;;6127875;28;20043;-69
2022/03/17 07:45:57;;;;;;;18.63;6.28;;;16.00;55.30;;;;;;6096315;28;20075;-68
2022/03/17 07:49:16;;;;;;;17.65;6.20;;;15.90;55.10;;;;;;6123025;28;20398;-68
2022/03/17 07:52:17;;;;;;;15.05;5.97;;;16.00;54.90;;;;;;6124527;28;20063;-69
2022/03/17 07:55:19;;;;;;;10.68;5.28;;;16.10;54.70;;;;;;6106734;28;20042;-69
2022/03/17 07:58:24;;;;;;;16.42;6.15;;;16.10;54.60;;;;;;6119617;28;20039;-68
2022/03/17 08:01:25;;;;;;;19.55;5.68;;;16.20;54.60;;;;;;6124338;28;20043;-68
2022/03/17 08:04:26;;;;;;;17.85;5.45;;;16.30;54.30;;;;;;6123808;28;20040;-68
2022/03/17 08:07:28;;;;;;;18.98;6.60;;;16.30;54.00;;;;;;6107125;28;20036;-68
2022/03/17 08:10:29;;;;;;;17.40;6.03;;;16.40;53.80;;;;;;6122348;28;20035;-68
2022/03/17 08:13:30;;;;;;;14.63;6.32;;;16.40;53.80;;;;;;6121419;28;20028;-68
2022/03/17 08:16:31;;;;;;;22.92;6.47;;;16.40;53.70;;;;;;6122408;28;20040;-68
2022/03/17 08:19:32;;;;;;;13.95;6.20;;;16.40;54.20;;;;;;6121669;28;20071;-70
2022/03/17 08:22:43;;;;;;;14.50;6.45;;;16.50;53.50;;;;;;6106257;28;20042;-68
2022/03/17 08:25:44;;;;;;;15.88;6.75;;;16.50;53.40;;;;;;6121883;28;20094;-69
2022/03/17 08:28:45;;;;;;;23.90;7.03;;;16.60;53.30;;;;;;6121186;28;20040;-70
2022/03/17 08:31:46;;;;;;;14.52;7.05;;;16.70;53.10;;;;;;6117871;28;20361;-68
2022/03/17 08:34:47;;;;;;;19.95;7.18;;;16.80;53.00;;;;;;6123823;28;20130;-68
2022/03/17 08:37:48;;;;;;;16.77;6.82;;;16.90;52.90;;;;;;6123532;28;20043;-68
2022/03/17 08:40:50;;;;;;;18.30;6.57;;;17.00;52.80;;;;;;6105437;28;20036;-68
2022/03/17 08:43:52;;;;;;;15.82;7.05;;;17.20;52.70;;;;;;6127842;28;20451;-68
2022/03/17 08:50:13;;;;;;;22.77;6.78;;;17.40;52.00;;;;;;6119457;28;20073;-69
2022/03/17 08:53:14;;;;;;;16.52;7.43;;;17.40;52.00;;;;;;6121815;28;20472;-69
2022/03/17 08:56:16;;;;;;;17.98;7.82;;;17.50;51.90;;;;;;6122191;28;20063;-68
2022/03/17 08:59:17;;;;;;;21.20;7.47;;;17.60;51.80;;;;;;6115897;28;20040;-69
2022/03/17 09:02:18;;;;;;;24.73;8.57;;;17.70;51.60;;;;;;6120930;28;20054;-68
2022/03/17 09:05:20;;;;;;;30.50;9.10;;;17.80;51.30;;;;;;6121302;28;20031;-68
2022/03/17 09:08:21;;;;;;;26.08;8.40;;;17.80;51.20;;;;;;6104187;28;20050;-68
2022/03/17 09:11:22;;;;;;;19.92;8.48;;;17.80;51.10;;;;;;6120710;28;20373;-69
2022/03/17 09:14:25;;;;;;;21.80;8.35;;;17.90;50.90;;;;;;6121352;28;20039;-67
2022/03/17 09:17:26;;;;;;;20.88;8.77;;;17.90;51.00;;;;;;6120816;28;20393;-68
2022/03/17 09:20:27;;;;;;;26.80;7.47;;;18.00;51.00;;;;;;6116406;28;20117;-68
2022/03/17 09:23:32;;;;;;;22.63;8.23;;;18.10;50.80;;;;;;6112656;28;20043;-68
2022/03/17 09:26:33;;;;;;;24.48;8.82;;;18.10;50.60;;;;;;6120882;28;20498;-68
2022/03/17 09:29:35;;;;;;;19.88;7.93;;;18.20;50.40;;;;;;6126012;28;20456;-68
2022/03/17 09:32:36;;;;;;;20.15;6.57;;;18.30;50.30;;;;;;6112152;28;20036;-68
2022/03/17 09:35:37;;;;;;;27.55;6.75;;;18.40;50.00;;;;;;6113550;28;20523;-68
2022/03/17 09:38:38;;;;;;;22.15;6.65;;;18.50;49.90;;;;;;6114556;28;20151;-68
2022/03/17 09:41:42;;;;;;;19.50;7.30;;;18.50;49.60;;;;;;6130985;28;20046;-68
2022/03/17 09:44:46;;;;;;;17.30;6.97;;;18.70;49.40;;;;;;6129854;28;20361;-69
2022/03/17 09:47:48;;;;;;;16.02;6.20;;;18.80;49.00;;;;;;6130142;28;20102;-68
2022/03/17 09:50:55;;;;;;;20.05;7.38;;;18.90;48.70;;;;;;6130293;28;20091;-69
2022/03/17 09:54:00;;;;;;;19.48;7.30;;;18.90;48.50;;;;;;6123964;28;20043;-68
2022/03/17 09:57:01;;;;;;;19.85;6.68;;;19.00;48.60;;;;;;6126471;28;20040;-68
2022/03/17 10:00:03;;;;;;;17.70;7.95;;;19.10;48.50;;;;;;6112028;28;20121;-68
2022/03/17 10:03:08;;;;;;;20.63;8.27;;;19.10;48.20;;;;;;6130738;28;20134;-69
2022/03/17 10:06:10;;;;;;;26.58;7.78;;;19.20;48.10;;;;;;6132250;28;20067;-69
2022/03/17 10:09:11;;;;;;;16.02;8.25;;;19.10;48.00;;;;;;6131973;28;20043;-69
2022/03/17 10:12:14;;;;;;;26.50;8.02;;;19.10;48.00;;;;;;6132207;28;20047;-69
2022/03/17 10:15:19;;;;;;;20.52;8.70;;;19.20;48.10;;;;;;6130179;28;20054;-69
2022/03/17 10:18:23;;;;;;;26.52;8.43;;;19.20;47.80;;;;;;6132594;28;20044;-68
2022/03/17 10:21:27;;;;;;;26.65;9.30;;;19.30;47.70;;;;;;6126880;28;20535;-69
2022/03/17 10:33:20;;;;;;;23.90;7.57;;;19.50;47.40;;;;;;6128309;28;20047;-69
2022/03/17 10:36:21;;;;;;;20.17;7.88;;;19.60;47.20;;;;;;6134189;28;20044;-68
2022/03/17 10:39:22;;;;;;;17.90;7.40;;;19.70;47.20;;;;;;6122455;29;20111;-69
2022/03/17 10:42:29;;;;;;;22.40;8.63;;;19.80;47.10;;;;;;6128332;28;20043;-69
2022/03/17 10:45:31;;;;;;;21.88;7.65;;;19.90;46.90;;;;;;6128696;28;20047;-69
2022/03/17 10:48:32;;;;;;;15.98;6.95;;;19.90;46.70;;;;;;6128777;28;20078;-68
2022/03/17 10:51:41;;;;;;;25.30;7.60;;;20.00;46.60;;;;;;6130357;28;20036;-70
2022/03/17 10:54:56;;;;;;;17.33;7.13;;;20.10;46.40;;;;;;6127842;28;20036;-68
2022/03/17 10:58:18;;;;;;;16.92;6.05;;;20.20;46.20;;;;;;6125517;28;20030;-68
2022/03/17 11:01:33;;;;;;;26.92;5.82;;;20.30;45.90;;;;;;6125866;28;20032;-68
2022/03/17 11:04:39;;;;;;;20.15;6.00;;;20.40;45.60;;;;;;6121113;28;20051;-69
2022/03/17 11:07:43;;;;;;;19.35;5.82;;;20.50;45.40;;;;;;6107435;28;20038;-69
2022/03/17 11:10:44;;;;;;;22.50;5.90;;;20.50;45.20;;;;;;6123735;28;20342;-69
2022/03/17 11:13:47;;;;;;;15.98;6.25;;;20.50;45.00;;;;;;6122098;28;20052;-69
2022/03/17 11:16:50;;;;;;;26.48;6.57;;;20.50;44.90;;;;;;6122674;28;20414;-70
2022/03/17 11:19:52;;;;;;;19.73;6.63;;;20.60;45.10;;;;;;6124987;28;20043;-70
2022/03/17 11:23:16;;;;;;;15.27;6.68;;;20.60;45.00;;;;;;6123357;28;20063;-69
2022/03/17 11:26:22;;;;;;;24.48;6.63;;;20.80;44.90;;;;;;6114364;28;20087;-69
2022/03/17 11:29:24;;;;;;;17.25;5.70;;;20.90;44.80;;;;;;6106272;28;20039;-69
2022/03/17 11:32:31;;;;;;;17.48;6.10;;;20.90;44.70;;;;;;6123070;28;20032;-69
2022/03/17 11:35:36;;;;;;;22.08;6.35;;;21.00;44.80;;;;;;6124697;28;20032;-70
2022/03/17 11:38:41;;;;;;;16.63;5.47;;;21.20;44.60;;;;;;6109203;28;20038;-70
2022/03/17 11:41:42;;;;;;;16.33;5.57;;;21.30;44.30;;;;;;6125470;28;20036;-69
2022/03/17 11:44:43;;;;;;;14.20;5.20;;;21.50;44.10;;;;;;6125861;28;20464;-69
2022/03/17 11:47:50;;;;;;;21.75;6.10;;;21.60;43.70;;;;;;6125542;28;20051;-69
2022/03/17 11:50:51;;;;;;;19.80;6.10;;;21.70;43.60;;;;;;6126233;28;20107;-68
2022/03/17 11:53:52;;;;;;;12.98;6.40;;;21.90;43.50;;;;;;6099026;28;20151;-70
2022/03/17 11:57:06;;;;;;;29.35;6.72;;;22.00;43.40;;;;;;6120576;28;20028;-69
2022/03/17 12:00:08;;;;;;;22.05;6.25;;;22.20;43.30;;;;;;6119131;28;20051;-69
2022/03/17 12:03:11;;;;;;;15.98;6.70;;;22.30;43.00;;;;;;6119488;28;20067;-69
2022/03/17 12:06:19;;;;;;;16.52;6.57;;;22.50;42.70;;;;;;6123905;28;20063;-70
2022/03/17 12:09:31;;;;;;;22.30;6.60;;;22.60;42.40;;;;;;6125153;28;20036;-69
2022/03/17 12:12:33;;;;;;;17.00;6.50;;;22.80;42.20;;;;;;6124011;28;20043;-70
2022/03/17 12:15:40;;;;;;;21.20;6.68;;;23.00;41.80;;;;;;6124116;28;20102;-70
2022/03/17 12:19:01;;;;;;;19.03;6.47;;;23.20;41.20;;;;;;6124484;28;20067;-70
2022/03/17 12:22:11;;;;;;;12.05;6.15;;;23.30;41.20;;;;;;6131164;28;20138;-70
2022/03/17 12:25:20;;;;;;;27.35;7.60;;;23.50;40.90;;;;;;6114969;28;20044;-70
2022/03/17 12:28:22;;;;;;;17.42;6.72;;;23.60;40.50;;;;;;6125870;28;20043;-70
2022/03/17 12:31:23;;;;;;;14.65;6.88;;;23.60;40.50;;;;;;6120093;28;20389;-69
2022/03/17 12:34:24;;;;;;;19.75;7.00;;;23.70;40.40;;;;;;6122211;28;20066;-70
2022/03/17 12:37:27;;;;;;;16.67;6.82;;;23.70;40.10;;;;;;6125402;28;20040;-69
2022/03/17 12:40:34;;;;;;;13.77;6.70;;;23.60;40.20;;;;;;6123067;28;20054;-69
2022/03/17 12:43:35;;;;;;;15.63;6.65;;;23.50;40.40;;;;;;6125031;28;20031;-69
2022/03/17 12:46:38;;;;;;;24.88;6.88;;;23.50;40.50;;;;;;6107998;28;20115;-69
2022/03/17 12:49:41;;;;;;;13.38;6.82;;;23.50;40.40;;;;;;6124681;28;20115;-69
2022/03/17 12:52:44;;;;;;;16.15;6.30;;;23.50;40.30;;;;;;6124966;28;20036;-69
2022/03/17 12:55:45;;;;;;;20.98;7.38;;;23.50;40.20;;;;;;6120638;28;20465;-70
2022/03/17 12:58:46;;;;;;;14.52;6.82;;;23.50;40.40;;;;;;6122597;28;20127;-68
2022/03/17 13:01:48;;;;;;;22.38;7.07;;;23.40;40.40;;;;;;6107541;28;20055;-70
2022/03/17 13:04:52;;;;;;;15.52;7.07;;;23.40;40.60;;;;;;6124455;28;20119;-68
2022/03/17 13:07:53;;;;;;;22.63;7.25;;;23.40;40.70;;;;;;6106989;28;20052;-69
2022/03/17 13:14:21;;;;;;;20.80;6.63;;;23.30;40.60;;;;;;6117943;28;20098;-69
2022/03/17 13:17:40;;;;;;;15.77;6.65;;;23.30;40.70;;;;;;6120096;28;20055;-69
2022/03/17 13:20:41;;;;;;;13.43;7.15;;;23.20;40.70;;;;;;6117557;28;20482;-69
2022/03/17 13:23:42;;;;;;;14.65;7.25;;;23.00;40.80;;;;;;6107159;28;20047;-70
2022/03/17 13:26:58;;;;;;;12.45;6.00;;;22.90;41.00;;;;;;6125251;28;20052;-69
2022/03/17 13:30:02;;;;;;;15.15;6.55;;;22.80;41.20;;;;;;6124434;28;20040;-70
2022/03/17 13:33:08;;;;;;;17.88;6.35;;;22.80;41.30;;;;;;6123727;28;20046;-69
2022/03/17 13:36:09;;;;;;;21.48;6.88;;;22.80;41.10;;;;;;6108121;28;20044;-70
2022/03/17 13:39:10;;;;;;;20.17;6.25;;;22.60;41.10;;;;;;6113894;28;20035;-71
2022/03/17 13:42:13;;;;;;;13.02;5.90;;;22.50;41.30;;;;;;6124049;28;20062;-69
2022/03/17 13:45:32;;;;;;;18.35;5.82;;;22.50;41.30;;;;;;6117716;28;20032;-69
2022/03/17 13:48:33;;;;;;;;;;;22.40;41.40;;;;;;6114748;28;20406;-69
2022/03/17 13:51:34;;;;;;;18.02;6.13;;;22.40;42.00;;;;;;6120327;28;20018;-70
2022/03/17 13:54:40;;;;;;;16.17;5.70;;;22.30;41.40;;;;;;6123400;28;20480;-71
2022/03/17 13:57:42;;;;;;;16.05;5.40;;;22.10;41.40;;;;;;6106967;28;20070;-68
2022/03/17 14:00:45;;;;;;;20.05;6.15;;;22.10;41.60;;;;;;6124174;28;20060;-70
2022/03/17 14:03:51;;;;;;;24.17;6.35;;;22.10;41.60;;;;;;6117223;28;20456;-69
2022/03/17 14:06:54;;;;;;;15.45;5.85;;;21.90;41.60;;;;;;6122843;28;20110;-70
2022/03/17 14:09:55;;;;;;;13.07;5.63;;;21.80;41.80;;;;;;6107125;28;20102;-70
2022/03/17 14:13:08;;;;;;;22.25;6.10;;;21.80;42.00;;;;;;6122720;28;20334;-69
2022/03/17 14:16:10;;;;;;;14.07;4.97;;;21.80;42.20;;;;;;6126352;28;20054;-69
2022/03/17 14:19:11;;;;;;;23.13;7.00;;;21.70;42.40;;;;;;6128191;28;20123;-68
2022/03/17 14:25:33;;;;;;;18.10;5.43;;;21.30;43.40;;;;;;6123964;28;20051;-70
2022/03/17 14:28:34;;;;;;;14.80;6.88;;;21.10;44.00;;;;;;6121500;28;20174;-71
2022/03/17 14:31:39;;;;;;;18.83;6.45;;;21.00;44.40;;;;;;6127886;28;20036;-70
2022/03/17 14:34:41;;;;;;;17.00;5.57;;;20.90;44.90;;;;;;6127954;28;20066;-69
2022/03/17 14:37:42;;;;;;;17.95;7.28;;;20.70;45.30;;;;;;6128727;28;20039;-69
2022/03/17 14:40:43;;;;;;;22.92;6.10;;;20.60;45.70;;;;;;6106609;28;20430;-69
2022/03/17 14:43:46;;;;;;;21.88;6.57;;;20.50;45.90;;;;;;6128546;28;20043;-69
2022/03/17 14:46:48;;;;;;;20.15;6.40;;;20.40;46.20;;;;;;6129162;28;20044;-69
2022/03/17 14:49:49;;;;;;;17.63;6.30;;;20.30;46.70;;;;;;6128475;29;20044;-69
2022/03/17 14:52:52;;;;;;;19.35;6.57;;;20.20;47.10;;;;;;6127134;28;20493;-69
2022/03/17 14:55:52;;;;;;;20.77;6.18;;;20.00;47.20;;;;;;6110856;28;20065;-68
2022/03/17 14:58:54;;;;;;;21.60;7.32;;;19.90;47.40;;;;;;6123345;28;20354;-68
2022/03/17 15:01:54;;;;;;;20.58;7.32;;;19.90;47.60;;;;;;6106716;29;20381;-70
2022/03/17 15:04:56;;;;;;;25.75;7.88;;;19.80;47.80;;;;;;6125234;28;20031;-69
2022/03/17 15:07:57;;;;;;;22.23;7.93;;;19.80;47.90;;;;;;6122079;28;20456;-69
2022/03/17 15:10:57;;;;;;;25.77;7.30;;;19.70;48.00;;;;;;6127900;28;20035;-68
2022/03/17 15:13:59;;;;;;;23.88;6.90;;;19.70;48.30;;;;;;6128825;28;20135;-69
2022/03/17 15:16:59;;;;;;;19.65;6.15;;;19.60;48.40;;;;;;6123082;28;20052;-70
2022/03/17 15:20:02;;;;;;;28.48;7.07;;;19.60;48.40;;;;;;6112137;28;20068;-68
2022/03/17 15:23:04;;;;;;;24.17;6.40;;;19.70;48.40;;;;;;6129710;28;20453;-69
2022/03/17 15:26:06;;;;;;;17.25;6.75;;;19.70;48.40;;;;;;6127840;28;20046;-69
2022/03/17 15:32:26;;;;;;;19.02;6.88;;;19.60;48.60;;;;;;6125508;28;20107;-68
2022/03/17 15:35:28;;;;;;;19.63;6.97;;;19.50;48.70;;;;;;6125634;28;20165;-69
2022/03/17 15:38:28;;;;;;;18.60;7.25;;;19.50;49.00;;;;;;6126214;28;20414;-69
2022/03/17 15:41:30;;;;;;;23.17;8.52;;;19.40;49.20;;;;;;6127106;28;20035;-69
2022/03/17 15:44:31;;;;;;;25.02;7.85;;;19.40;49.40;;;;;;6126819;28;20449;-70
2022/03/17 15:47:31;;;;;;;29.90;8.02;;;19.30;49.50;;;;;;6126133;28;20052;-69
2022/03/17 15:50:32;;;;;;;29.98;9.35;;;19.30;49.70;;;;;;6125774;28;20122;-70
2022/03/17 15:53:33;;;;;;;30.90;10.50;;;19.20;50.60;;;;;;6109438;28;20131;-70
2022/03/17 15:56:34;;;;;;;37.15;11.10;;;19.20;50.40;;;;;;6123367;28;20106;-70
2022/03/17 15:59:36;;;;;;;29.45;10.80;;;19.10;50.70;;;;;;6099578;28;20040;-69
2022/03/17 16:02:37;;;;;;;25.15;9.77;;;19.00;51.10;;;;;;6124596;28;20050;-69
2022/03/17 16:05:38;;;;;;;32.28;11.38;;;18.90;51.60;;;;;;6126813;28;20036;-70
2022/03/17 16:08:39;;;;;;;30.38;11.60;;;18.70;51.90;;;;;;6125189;28;20036;-69
2022/03/17 16:14:59;;;;;;;29.25;11.68;;;18.40;52.80;;;;;;6122327;28;20040;-68